createdAt,value
2018-05-11T00:00:40.522Z,72.20
2018-05-11T00:03:10.537Z,72.40
2018-05-11T00:05:39.733Z,72.50
2018-05-11T00:08:09.473Z,73.00
2018-05-11T00:10:38.421Z,73.10
2018-05-11T00:13:07.308Z,72.80
2018-05-11T00:15:36.511Z,72.80
2018-05-11T00:18:05.717Z,72.80
2018-05-11T00:20:34.900Z,72.40
2018-05-11T00:23:04.110Z,72.50
2018-05-11T00:25:33.306Z,72.70
2018-05-11T00:28:02.511Z,73.00
2018-05-11T00:30:30.964Z,73.10
2018-05-11T00:33:00.172Z,73.60
2018-05-11T00:35:29.398Z,72.60
2018-05-11T00:37:58.024Z,72.60
2018-05-11T00:40:26.457Z,72.60
2018-05-11T00:42:54.907Z,72.40
2018-05-11T00:45:24.101Z,72.90
2018-05-11T00:47:53.302Z,72.90
2018-05-11T00:50:22.504Z,73.20
2018-05-11T00:52:50.930Z,73.20
2018-05-11T00:55:30.464Z,73.00
2018-05-11T00:57:58.895Z,73.30
2018-05-11T01:00:28.085Z,73.50
2018-05-11T01:02:57.310Z,73.20
2018-05-11T01:05:25.745Z,73.20
2018-05-11T01:07:54.168Z,73.00
2018-05-11T01:10:22.605Z,73.30
2018-05-11T01:12:51.131Z,73.60
2018-05-11T01:15:19.222Z,73.20
2018-05-11T01:17:47.657Z,73.40
2018-05-11T01:20:16.217Z,73.30
2018-05-11T01:22:44.715Z,73.30
2018-05-11T01:25:13.904Z,73.40
2018-05-11T01:27:43.105Z,73.60
2018-05-11T01:30:11.973Z,73.80
2018-05-11T01:32:40.395Z,73.80
2018-05-11T01:35:09.203Z,73.90
2018-05-11T01:37:38.408Z,73.90
2018-05-11T01:40:06.514Z,73.90
2018-05-11T01:42:35.004Z,73.70
2018-05-11T01:45:03.880Z,73.60
2018-05-11T01:47:32.337Z,73.60
2018-05-11T01:50:00.780Z,74.70
2018-05-11T01:52:29.210Z,73.80
2018-05-11T01:54:57.655Z,73.80
2018-05-11T01:57:26.092Z,73.60
2018-05-11T01:59:55.288Z,73.90
2018-05-11T02:02:24.489Z,73.90
2018-05-11T02:04:53.682Z,73.90
2018-05-11T02:07:22.871Z,74.00
2018-05-11T02:09:52.058Z,73.90
2018-05-11T02:12:20.514Z,73.80
2018-05-11T02:14:48.957Z,73.80
2018-05-11T02:17:17.396Z,73.70
2018-05-11T02:19:45.816Z,73.60
2018-05-11T02:22:14.250Z,73.00
2018-05-11T02:24:42.676Z,73.50
2018-05-11T02:27:11.113Z,73.60
2018-05-11T02:29:40.309Z,74.10
2018-05-11T02:32:10.360Z,74.00
2018-05-11T02:34:39.591Z,74.00
2018-05-11T02:37:08.613Z,74.10
2018-05-11T02:39:37.809Z,73.60
2018-05-11T02:42:07.152Z,74.30
2018-05-11T02:44:35.599Z,74.10
2018-05-11T02:47:04.790Z,74.40
2018-05-11T02:49:33.988Z,74.50
2018-05-11T02:52:03.190Z,74.30
2018-05-11T02:54:32.589Z,74.60
2018-05-11T02:57:01.814Z,74.80
2018-05-11T02:59:30.245Z,74.90
2018-05-11T03:01:58.717Z,74.60
2018-05-11T03:04:27.148Z,74.90
2018-05-11T03:06:55.576Z,74.60
2018-05-11T03:09:23.667Z,74.30
2018-05-11T03:11:52.847Z,74.90
2018-05-11T03:14:21.285Z,74.90
2018-05-11T03:16:49.713Z,75.10
2018-05-11T03:19:18.928Z,75.10
2018-05-11T03:21:49.128Z,75.00
2018-05-11T03:24:17.561Z,75.00
2018-05-11T03:26:45.995Z,74.90
2018-05-11T03:29:15.198Z,74.80
2018-05-11T03:31:44.405Z,75.10
2018-05-11T03:34:12.842Z,75.10
2018-05-11T03:36:41.288Z,74.40
2018-05-11T03:39:10.677Z,74.80
2018-05-11T03:41:39.788Z,75.00
2018-05-11T03:44:08.217Z,74.70
2018-05-11T03:46:38.107Z,75.50
2018-05-11T03:49:05.878Z,75.50
2018-05-11T03:51:34.341Z,75.60
2018-05-11T03:54:02.772Z,75.40
2018-05-11T03:56:31.202Z,75.50
2018-05-11T03:58:59.636Z,75.40
2018-05-11T04:04:42.489Z,75.20
2018-05-11T04:07:22.001Z,75.20
2018-05-11T04:09:50.205Z,75.20
2018-05-11T04:12:18.632Z,74.90
2018-05-11T04:14:47.834Z,75.20
2018-05-11T04:17:17.015Z,75.10
2018-05-11T04:19:45.441Z,75.00
2018-05-11T04:22:13.912Z,75.90
2018-05-11T04:24:42.339Z,75.10
2018-05-11T04:27:10.798Z,75.00
2018-05-11T04:29:40.006Z,75.20
2018-05-11T04:32:09.368Z,75.40
2018-05-11T04:34:37.836Z,75.30
2018-05-11T04:37:06.273Z,75.50
2018-05-11T04:39:34.709Z,75.30
2018-05-11T04:42:03.140Z,75.40
2018-05-11T04:44:31.581Z,75.20
2018-05-11T04:47:00.013Z,76.20
2018-05-11T04:49:29.223Z,75.30
2018-05-11T04:51:57.647Z,75.30
2018-05-11T04:54:26.506Z,75.30
2018-05-11T04:56:54.948Z,75.40
2018-05-11T04:59:24.176Z,75.10
2018-05-11T05:01:52.601Z,75.10
2018-05-11T05:04:21.029Z,75.00
2018-05-11T05:06:49.486Z,74.90
2018-05-11T05:09:18.683Z,75.00
2018-05-11T05:11:47.881Z,75.00
2018-05-11T05:14:17.069Z,75.00
2018-05-11T05:16:46.274Z,74.70
2018-05-11T05:19:15.329Z,74.90
2018-05-11T05:21:43.860Z,74.90
2018-05-11T05:24:12.323Z,74.90
2018-05-11T05:26:41.529Z,75.50
2018-05-11T05:29:10.721Z,75.50
2018-05-11T05:31:40.401Z,75.50
2018-05-11T05:34:10.283Z,75.50
2018-05-11T05:36:38.852Z,75.30
2018-05-11T05:39:07.490Z,75.40
2018-05-11T05:41:36.834Z,75.00
2018-05-11T05:44:05.316Z,74.90
2018-05-11T05:46:33.778Z,75.00
2018-05-11T05:49:02.290Z,75.00
2018-05-11T05:51:30.785Z,75.00
2018-05-11T05:54:00.218Z,75.00
2018-05-11T05:56:29.470Z,74.40
2018-05-11T05:58:57.956Z,74.40
2018-05-11T06:01:26.416Z,74.30
2018-05-11T06:03:54.863Z,74.50
2018-05-11T06:06:24.092Z,73.90
2018-05-11T06:08:52.564Z,73.90
2018-05-11T06:11:21.052Z,73.60
2018-05-11T06:13:50.516Z,73.40
2018-05-11T06:16:18.982Z,74.00
2018-05-11T06:18:48.249Z,73.90
2018-05-11T06:21:16.698Z,73.90
2018-05-11T06:23:46.172Z,73.90
2018-05-11T06:26:15.410Z,73.60
2018-05-11T06:28:43.856Z,73.60
2018-05-11T06:31:13.096Z,74.40
2018-05-11T06:33:42.550Z,74.40
2018-05-11T06:36:11.766Z,74.80
2018-05-11T06:38:40.235Z,75.00
2018-05-11T06:41:08.696Z,74.70
2018-05-11T06:43:39.058Z,76.70
2018-05-11T06:46:07.422Z,76.70
2018-05-11T06:48:36.002Z,75.70
2018-05-11T06:51:04.482Z,76.10
2018-05-11T06:53:33.985Z,75.10
2018-05-11T06:56:02.451Z,76.20
2018-05-11T06:58:31.686Z,75.00
2018-05-11T07:01:00.161Z,75.00
2018-05-11T07:03:28.643Z,74.70
2018-05-11T07:05:57.102Z,74.70
2018-05-11T07:08:25.572Z,74.50
2018-05-11T07:10:54.047Z,74.00
2018-05-11T07:13:23.267Z,74.60
2018-05-11T07:15:51.751Z,74.60
2018-05-11T07:18:20.233Z,74.30
2018-05-11T07:20:48.738Z,74.80
2018-05-11T07:23:17.208Z,74.30
2018-05-11T07:25:45.686Z,74.30
2018-05-11T07:28:15.156Z,75.50
2018-05-11T07:30:43.628Z,75.50
2018-05-11T07:33:12.858Z,74.30
2018-05-11T07:35:41.344Z,74.20
2018-05-11T07:38:09.806Z,73.80
2018-05-11T07:40:38.295Z,73.70
2018-05-11T07:43:06.838Z,73.60
2018-05-11T07:45:36.172Z,74.00
2018-05-11T07:48:04.294Z,74.00
2018-05-11T07:50:32.757Z,73.10
2018-05-11T07:53:00.900Z,74.00
2018-05-11T07:55:29.369Z,73.80
2018-05-11T07:57:57.840Z,76.60
2018-05-11T08:00:26.306Z,74.40
2018-05-11T08:02:55.547Z,73.70
2018-05-11T08:05:24.048Z,73.60
2018-05-11T08:07:52.518Z,74.10
2018-05-11T08:10:20.984Z,73.50
2018-05-11T08:12:49.452Z,72.80
2018-05-11T08:15:17.927Z,72.80
2018-05-11T08:17:46.408Z,73.40
2018-05-11T08:20:14.866Z,72.30
2018-05-11T08:22:43.397Z,73.10
2018-05-11T08:25:11.523Z,72.50
2018-05-11T08:27:40.010Z,72.50
2018-05-11T08:30:08.490Z,71.60
2018-05-11T08:32:37.009Z,71.70
2018-05-11T08:35:05.526Z,70.80
2018-05-11T08:37:34.759Z,70.90
2018-05-11T08:40:03.246Z,71.00
2018-05-11T08:42:31.744Z,70.50
2018-05-11T08:45:00.213Z,70.80
2018-05-11T08:47:28.694Z,70.80
2018-05-11T08:49:57.187Z,70.70
2018-05-11T08:52:25.655Z,70.90
2018-05-11T08:54:54.092Z,71.10
2018-05-11T08:57:22.569Z,71.10
2018-05-11T08:59:51.025Z,70.50
2018-05-11T09:02:20.304Z,71.70
2018-05-11T09:04:48.795Z,71.60
2018-05-11T09:07:17.289Z,71.80
2018-05-11T09:09:46.523Z,71.40
2018-05-11T09:12:14.992Z,72.10
2018-05-11T09:14:43.487Z,70.70
2018-05-11T09:17:11.962Z,70.90
2018-05-11T09:19:40.471Z,70.20
2018-05-11T09:22:08.976Z,70.00
2018-05-11T09:24:37.586Z,70.00
2018-05-11T09:27:06.102Z,70.20
2018-05-11T09:29:34.548Z,70.00
2018-05-11T09:32:03.065Z,70.30
2018-05-11T09:34:31.562Z,69.90
2018-05-11T09:37:00.026Z,69.60
2018-05-11T09:39:28.591Z,69.20
2018-05-11T09:41:57.187Z,69.10
2018-05-11T09:44:25.707Z,69.40
2018-05-11T09:46:54.937Z,69.70
2018-05-11T09:49:23.440Z,69.70
2018-05-11T09:51:52.513Z,69.80
2018-05-11T09:54:20.971Z,69.70
2018-05-11T09:56:50.200Z,69.90
2018-05-11T09:59:18.686Z,69.80
2018-05-11T10:01:47.151Z,70.70
2018-05-11T10:04:16.562Z,70.80
2018-05-11T10:06:45.044Z,70.80
2018-05-11T10:09:13.523Z,71.10
2018-05-11T10:11:41.617Z,71.70
2018-05-11T10:14:10.074Z,71.30
2018-05-11T10:16:38.537Z,70.30
2018-05-11T10:19:07.019Z,69.40
2018-05-11T10:21:35.478Z,69.10
2018-05-11T10:24:04.704Z,69.10
2018-05-11T10:26:33.177Z,69.10
2018-05-11T10:29:01.625Z,70.20
2018-05-11T10:31:30.000Z,69.80
2018-05-11T10:33:58.411Z,70.30
2018-05-11T10:36:26.843Z,70.30
2018-05-11T10:38:55.290Z,69.60
2018-05-11T10:41:23.720Z,68.50
2018-05-11T10:43:52.931Z,69.90
2018-05-11T10:46:21.433Z,70.00
2018-05-11T10:48:49.891Z,69.70
2018-05-11T10:51:18.600Z,70.30
2018-05-11T10:53:47.040Z,70.20
2018-05-11T10:56:16.262Z,70.50
2018-05-11T10:58:44.696Z,70.50
2018-05-11T11:01:13.229Z,70.10
2018-05-11T11:03:41.661Z,70.10
2018-05-11T11:06:10.985Z,70.10
2018-05-11T11:08:40.002Z,70.30
2018-05-11T11:11:08.448Z,70.90
2018-05-11T11:13:38.209Z,71.00
2018-05-11T11:16:06.880Z,71.00
2018-05-11T11:18:35.314Z,70.70
2018-05-11T11:21:04.515Z,70.70
2018-05-11T11:23:33.730Z,70.00
2018-05-11T11:26:02.297Z,69.80
2018-05-11T11:28:30.845Z,68.80
2018-05-11T11:30:59.282Z,69.20
2018-05-11T11:33:27.729Z,69.20
2018-05-11T11:35:56.955Z,68.10
2018-05-11T11:38:25.395Z,68.00
2018-05-11T11:40:53.611Z,68.30
2018-05-11T11:43:21.717Z,68.70
2018-05-11T11:45:50.140Z,68.30
2018-05-11T11:48:18.599Z,69.10
2018-05-11T11:50:47.797Z,69.20
2018-05-11T11:53:16.984Z,69.70
2018-05-11T11:55:45.451Z,69.70
2018-05-11T11:58:13.549Z,70.10
2018-05-11T12:00:42.758Z,69.20
2018-05-11T12:03:11.187Z,69.20
2018-05-11T12:05:39.641Z,69.50
2018-05-11T12:08:08.892Z,70.30
2018-05-11T12:10:38.147Z,70.50
2018-05-11T12:13:06.576Z,70.50
2018-05-11T12:15:35.788Z,69.60
2018-05-11T12:18:04.229Z,69.50
2018-05-11T12:20:32.671Z,68.90
2018-05-11T12:23:01.091Z,69.10
2018-05-11T12:25:29.533Z,68.80
2018-05-11T12:27:57.972Z,68.40
2018-05-11T12:30:27.157Z,69.50
2018-05-11T12:32:56.368Z,69.00
2018-05-11T12:35:25.565Z,70.00
2018-05-11T12:37:54.014Z,70.00
2018-05-11T12:40:22.470Z,69.70
2018-05-11T12:42:50.912Z,69.30
2018-05-11T12:45:19.379Z,68.80
2018-05-11T12:47:48.578Z,70.40
2018-05-11T12:50:17.016Z,70.30
2018-05-11T12:52:45.488Z,69.90
2018-05-11T12:55:14.099Z,69.80
2018-05-11T12:57:43.310Z,70.30
2018-05-11T13:00:12.189Z,70.40
2018-05-11T13:02:41.417Z,69.00
2018-05-11T13:05:10.220Z,69.00
2018-05-11T13:07:38.648Z,68.20
2018-05-11T13:10:07.865Z,70.40
2018-05-11T13:12:37.053Z,69.20
2018-05-11T13:15:06.281Z,69.60
2018-05-11T13:17:34.717Z,69.50
2018-05-11T13:20:03.584Z,67.90
2018-05-11T13:22:32.035Z,67.90
2018-05-11T13:25:00.487Z,67.20
2018-05-11T13:27:28.920Z,68.50
2018-05-11T13:29:57.355Z,68.10
2018-05-11T13:32:25.796Z,69.60
2018-05-11T13:34:55.000Z,69.20
2018-05-11T13:37:24.229Z,67.80
2018-05-11T13:39:52.664Z,67.70
2018-05-11T13:42:21.096Z,67.80
2018-05-11T13:44:50.537Z,67.80
2018-05-11T13:47:18.984Z,67.80
2018-05-11T13:49:47.420Z,67.30
2018-05-11T13:52:16.631Z,67.50
2018-05-11T13:54:45.056Z,67.50
2018-05-11T13:57:13.512Z,68.70
2018-05-11T13:59:41.944Z,67.80
2018-05-11T14:02:11.145Z,66.70
2018-05-11T14:04:40.448Z,67.70
2018-05-11T14:07:09.750Z,67.30
2018-05-11T14:09:39.657Z,67.50
2018-05-11T14:12:09.358Z,67.60
2018-05-11T14:14:38.559Z,68.90
2018-05-11T14:17:08.297Z,68.30
2018-05-11T14:19:36.740Z,68.30
2018-05-11T14:22:05.942Z,67.30
2018-05-11T14:24:35.201Z,66.20
2018-05-11T14:27:03.620Z,66.20
2018-05-11T14:29:32.821Z,65.70
2018-05-11T14:32:02.134Z,65.60
2018-05-11T14:34:31.480Z,64.90
2018-05-11T14:36:59.916Z,64.90
2018-05-11T14:39:28.403Z,65.40
2018-05-11T14:41:56.848Z,67.00
2018-05-11T14:44:26.063Z,65.70
2018-05-11T14:46:54.508Z,65.70
2018-05-11T14:49:22.942Z,65.60
2018-05-11T14:51:51.053Z,65.20
2018-05-11T14:54:19.496Z,66.10
2018-05-11T14:56:47.597Z,65.20
2018-05-11T14:59:16.042Z,65.50
2018-05-11T15:01:44.490Z,65.20
2018-05-11T15:04:13.788Z,63.40
2018-05-11T15:06:42.350Z,63.40
2018-05-11T15:09:10.871Z,62.90
2018-05-11T15:11:40.140Z,62.80
2018-05-11T15:14:10.076Z,63.30
2018-05-11T15:16:39.141Z,63.30
2018-05-11T15:19:08.741Z,63.30
2018-05-11T15:21:37.194Z,63.30
2018-05-11T15:24:06.945Z,64.20
2018-05-11T15:26:36.161Z,64.70
2018-05-11T15:29:04.604Z,64.60
2018-05-11T15:31:33.053Z,65.20
2018-05-11T15:34:01.494Z,66.40
2018-05-11T15:36:29.943Z,66.40
2018-05-11T15:38:59.164Z,65.20
2018-05-11T15:41:27.602Z,65.20
2018-05-11T15:43:56.050Z,64.80
2018-05-11T15:46:24.470Z,64.30
2018-05-11T15:48:52.951Z,64.10
2018-05-11T15:51:21.409Z,64.00
2018-05-11T15:53:49.839Z,64.40
2018-05-11T15:56:18.283Z,64.00
2018-05-11T15:58:46.715Z,63.50
2018-05-11T16:01:15.183Z,63.30
2018-05-11T16:03:43.614Z,63.70
2018-05-11T16:06:12.048Z,63.60
2018-05-11T16:08:40.500Z,63.80
2018-05-11T16:11:09.806Z,64.60
2018-05-11T16:13:39.216Z,64.40
2018-05-11T16:16:08.250Z,64.80
2018-05-11T16:18:36.686Z,64.40
2018-05-11T16:21:05.125Z,64.60
2018-05-11T16:23:33.558Z,65.70
2018-05-11T16:26:01.354Z,66.60
2018-05-11T16:28:29.804Z,66.90
2018-05-11T16:30:58.244Z,66.30
2018-05-11T16:33:27.448Z,65.00
2018-05-11T16:35:56.643Z,64.90
2018-05-11T16:38:25.862Z,65.00
2018-05-11T16:40:54.304Z,65.00
2018-05-11T16:43:23.506Z,65.20
2018-05-11T16:45:52.708Z,64.70
2018-05-11T16:48:21.935Z,64.70
2018-05-11T16:50:50.137Z,64.70
2018-05-11T16:53:18.576Z,64.70
2018-05-11T16:55:47.011Z,64.90
2018-05-11T16:58:15.428Z,64.90
2018-05-11T17:00:43.867Z,64.80
2018-05-11T17:03:12.297Z,65.40
2018-05-11T17:05:40.741Z,66.20
2018-05-11T17:08:09.948Z,68.60
2018-05-11T17:10:39.164Z,68.30
2018-05-11T17:13:07.757Z,68.20
2018-05-11T17:15:36.208Z,69.10
2018-05-11T17:18:05.426Z,70.70
2018-05-11T17:20:33.868Z,70.70
2018-05-11T17:23:02.309Z,70.30
2018-05-11T17:25:30.765Z,70.40
2018-05-11T17:27:58.861Z,69.80
2018-05-11T17:30:27.292Z,69.80
2018-05-11T17:32:56.255Z,69.50
2018-05-11T17:35:24.472Z,69.60
2018-05-11T17:37:53.856Z,70.20
2018-05-11T17:40:23.051Z,70.40
2018-05-11T17:42:52.251Z,70.20
2018-05-11T17:45:21.466Z,70.80
2018-05-11T17:47:49.898Z,70.80
2018-05-11T17:50:18.342Z,71.30
2018-05-11T17:52:46.802Z,71.00
2018-05-11T17:55:15.245Z,71.10
2018-05-11T17:57:43.677Z,70.70
2018-05-11T18:00:12.111Z,71.00
2018-05-11T18:02:41.315Z,70.90
2018-05-11T18:05:10.124Z,70.90
2018-05-11T18:07:39.132Z,71.20
2018-05-11T18:10:07.869Z,71.10
2018-05-11T18:12:36.428Z,71.10
2018-05-11T18:15:04.518Z,71.10
2018-05-11T18:17:33.732Z,71.20
2018-05-11T18:20:02.932Z,71.60
2018-05-11T18:22:31.396Z,71.60
2018-05-11T18:25:00.600Z,71.20
2018-05-11T18:27:29.806Z,71.00
2018-05-11T18:29:58.248Z,71.00
2018-05-11T18:32:26.690Z,71.20
2018-05-11T18:34:55.117Z,71.60
2018-05-11T18:37:23.550Z,71.20
2018-05-11T18:39:51.979Z,71.10
2018-05-11T18:42:21.180Z,71.20
2018-05-11T18:44:50.388Z,71.00
2018-05-11T18:47:18.828Z,71.00
2018-05-11T18:49:47.261Z,71.30
2018-05-11T18:52:15.712Z,71.20
2018-05-11T18:54:44.989Z,71.60
2018-05-11T18:57:13.536Z,71.60
2018-05-11T18:59:42.003Z,71.20
2018-05-11T19:02:11.203Z,70.90
2018-05-11T19:04:40.381Z,70.70
2018-05-11T19:07:08.833Z,71.00
2018-05-11T19:09:38.814Z,72.00
2018-05-11T19:12:07.236Z,72.00
2018-05-11T19:14:36.469Z,71.80
2018-05-11T19:17:04.572Z,71.80
2018-05-11T19:19:33.024Z,71.90
2018-05-11T19:22:01.130Z,72.10
2018-05-11T19:24:29.241Z,71.70
2018-05-11T19:26:57.667Z,71.60
2018-05-11T19:29:26.107Z,71.50
2018-05-11T19:31:54.541Z,70.80
2018-05-11T19:34:23.004Z,71.20
2018-05-11T19:36:51.437Z,72.00
2018-05-11T19:39:19.885Z,72.40
2018-05-11T19:41:49.088Z,71.60
2018-05-11T19:44:18.284Z,72.20
2018-05-11T19:46:47.484Z,71.60
2018-05-11T19:49:16.701Z,71.40
2018-05-11T19:51:45.134Z,71.40
2018-05-11T19:54:13.571Z,72.60
2018-05-11T19:56:42.021Z,72.50
2018-05-11T19:59:11.222Z,72.40
2018-05-11T20:01:40.608Z,72.00
2018-05-11T20:04:10.094Z,71.60
2018-05-11T20:12:08.875Z,72.00
2018-05-11T20:14:37.305Z,71.70
2018-05-11T20:17:05.769Z,71.50
2018-05-11T20:19:34.207Z,72.10
2018-05-11T20:22:02.693Z,71.50
2018-05-11T20:24:31.129Z,71.60
2018-05-11T20:27:00.320Z,71.30
2018-05-11T20:29:28.766Z,71.40
2018-05-11T20:31:57.209Z,71.30
2018-05-11T20:34:25.643Z,71.10
2018-05-11T20:36:54.107Z,70.80
2018-05-11T20:42:18.743Z,72.40
2018-05-11T20:44:47.178Z,72.10
2018-05-11T20:47:15.598Z,72.40
2018-05-11T20:49:44.055Z,72.30
2018-05-11T20:52:12.470Z,71.50
2018-05-11T20:54:40.897Z,71.50
2018-05-11T20:57:09.337Z,71.70
2018-05-11T20:59:37.782Z,72.20
2018-05-11T21:02:07.004Z,72.20
2018-05-11T21:04:35.440Z,72.10
2018-05-11T21:07:03.635Z,72.30
2018-05-11T21:09:32.831Z,72.80
2018-05-11T21:12:02.054Z,73.50
2018-05-11T21:14:30.642Z,73.50
2018-05-11T21:16:59.169Z,74.30
2018-05-11T21:19:27.624Z,74.40
2018-05-11T21:21:56.081Z,73.60
2018-05-11T21:24:24.540Z,74.60
2018-05-11T21:26:52.971Z,73.70
2018-05-11T21:29:21.417Z,73.40
2018-05-11T21:31:49.854Z,73.80
2018-05-11T21:34:19.060Z,73.30
2018-05-11T21:36:48.402Z,73.40
2018-05-11T21:39:17.766Z,74.80
2018-05-11T21:41:46.320Z,74.00
2018-05-11T21:44:14.812Z,73.90
2018-05-11T21:46:44.016Z,73.70
2018-05-11T21:49:13.218Z,73.70
2018-05-11T21:51:42.424Z,73.70
2018-05-11T21:54:10.857Z,73.70
2018-05-11T21:56:39.302Z,73.80
2018-05-11T21:59:07.768Z,73.70
2018-05-11T22:01:35.862Z,73.60
2018-05-11T22:04:04.293Z,73.60
2018-05-11T22:06:33.502Z,74.10
2018-05-11T22:09:01.984Z,74.10
2018-05-11T22:11:30.419Z,75.00
2018-05-11T22:13:58.861Z,74.40
2018-05-11T22:16:27.304Z,75.10
2018-05-11T22:18:56.511Z,74.90
2018-05-11T22:21:24.944Z,74.90
2018-05-11T22:23:53.388Z,75.20
2018-05-11T22:26:21.826Z,75.10
2018-05-11T22:28:51.086Z,75.10
2018-05-11T22:31:19.513Z,75.10
2018-05-11T22:33:48.708Z,75.10
2018-05-11T22:36:18.731Z,75.30
2018-05-11T22:38:48.803Z,75.10
2018-05-11T22:41:18.048Z,75.20
2018-05-11T22:43:46.484Z,75.60
2018-05-11T22:46:14.957Z,75.10
2018-05-11T22:48:43.390Z,75.30
2018-05-11T22:51:11.832Z,75.00
2018-05-11T22:53:40.263Z,75.40
2018-05-11T22:56:08.714Z,75.00
2018-05-11T22:58:37.902Z,75.10
2018-05-11T23:01:07.096Z,75.00
2018-05-11T23:03:36.348Z,75.40
2018-05-11T23:06:05.700Z,76.50
2018-05-11T23:08:34.905Z,76.30
2018-05-11T23:11:04.100Z,75.50
2018-05-11T23:13:33.305Z,75.60
2018-05-11T23:16:01.748Z,75.60
2018-05-11T23:18:30.192Z,75.40
2018-05-11T23:20:58.623Z,75.50
2018-05-11T23:23:27.819Z,75.70
2018-05-11T23:25:57.025Z,75.40
2018-05-11T23:28:25.888Z,74.90
2018-05-11T23:30:54.351Z,74.90
2018-05-11T23:33:22.785Z,76.40
2018-05-11T23:35:51.230Z,75.70
2018-05-11T23:38:19.669Z,76.40
2018-05-11T23:40:48.952Z,75.40
2018-05-11T23:43:17.385Z,75.60
2018-05-11T23:45:46.572Z,76.70
2018-05-11T23:48:15.013Z,76.00
2018-05-11T23:50:43.448Z,75.40
2018-05-11T23:53:12.648Z,75.50
2018-05-11T23:55:41.844Z,75.20
2018-05-11T23:58:11.083Z,76.00
